sensor_id;sensor_type;location;lat;lon;timestamp;P1;durP1;ratioP1;P2;durP2;ratioP2
18249;SDS011;27980;52.126;5.572;2023-10-13T00:01:00;29.25;;;12.18;;
18249;SDS011;27980;52.126;5.572;2023-10-13T00:03:29;19.15;;;11.23;;
18249;SDS011;27980;52.126;5.572;2023-10-13T00:05:57;29.92;;;11.30;;
18249;SDS011;27980;52.126;5.572;2023-10-13T00:08:25;25.00;;;12.43;;
18249;SDS011;27980;52.126;5.572;2023-10-13T00:10:54;28.92;;;12.32;;
18249;SDS011;27980;52.126;5.572;2023-10-13T00:13:26;28.67;;;12.70;;
18249;SDS011;27980;52.126;5.572;2023-10-13T00:15:52;29.70;;;13.40;;
18249;SDS011;27980;52.126;5.572;2023-10-13T00:18:23;31.73;;;13.02;;
18249;SDS011;27980;52.126;5.572;2023-10-13T00:20:51;25.38;;;11.32;;
18249;SDS011;27980;52.126;5.572;2023-10-13T00:23:21;25.60;;;12.02;;
18249;SDS011;27980;52.126;5.572;2023-10-13T00:25:48;24.83;;;11.80;;
18249;SDS011;27980;52.126;5.572;2023-10-13T00:28:24;29.35;;;12.32;;
18249;SDS011;27980;52.126;5.572;2023-10-13T00:30:53;24.15;;;11.93;;
18249;SDS011;27980;52.126;5.572;2023-10-13T00:33:25;26.35;;;12.23;;
18249;SDS011;27980;52.126;5.572;2023-10-13T00:35:52;27.40;;;12.65;;
18249;SDS011;27980;52.126;5.572;2023-10-13T00:38:22;26.00;;;11.95;;
18249;SDS011;27980;52.126;5.572;2023-10-13T00:40:48;21.67;;;11.68;;
18249;SDS011;27980;52.126;5.572;2023-10-13T00:43:19;30.33;;;12.93;;
18249;SDS011;27980;52.126;5.572;2023-10-13T00:46:01;22.75;;;12.57;;
18249;SDS011;27980;52.126;5.572;2023-10-13T00:48:38;28.10;;;12.45;;
18249;SDS011;27980;52.126;5.572;2023-10-13T00:51:16;25.55;;;11.48;;
18249;SDS011;27980;52.126;5.572;2023-10-13T00:53:44;23.45;;;11.75;;
18249;SDS011;27980;52.126;5.572;2023-10-13T00:56:12;25.85;;;11.75;;
18249;SDS011;27980;52.126;5.572;2023-10-13T00:58:49;29.98;;;13.52;;
18249;SDS011;27980;52.126;5.572;2023-10-13T01:01:19;24.27;;;11.80;;
18249;SDS011;27980;52.126;5.572;2023-10-13T01:03:47;23.17;;;12.43;;
18249;SDS011;27980;52.126;5.572;2023-10-13T01:06:15;26.83;;;12.90;;
18249;SDS011;27980;52.126;5.572;2023-10-13T01:08:42;26.08;;;12.98;;
18249;SDS011;27980;52.126;5.572;2023-10-13T01:11:09;25.55;;;13.38;;
18249;SDS011;27980;52.126;5.572;2023-10-13T01:13:35;22.15;;;12.27;;
18249;SDS011;27980;52.126;5.572;2023-10-13T01:16:02;26.88;;;12.65;;
18249;SDS011;27980;52.126;5.572;2023-10-13T01:18:33;26.83;;;13.30;;
18249;SDS011;27980;52.126;5.572;2023-10-13T01:21:05;28.75;;;13.73;;
18249;SDS011;27980;52.126;5.572;2023-10-13T01:23:32;28.08;;;14.05;;
18249;SDS011;27980;52.126;5.572;2023-10-13T01:26:03;24.00;;;12.88;;
18249;SDS011;27980;52.126;5.572;2023-10-13T01:28:30;29.35;;;14.80;;
18249;SDS011;27980;52.126;5.572;2023-10-13T01:30:55;27.85;;;14.88;;
18249;SDS011;27980;52.126;5.572;2023-10-13T01:33:22;29.08;;;14.15;;
18249;SDS011;27980;52.126;5.572;2023-10-13T01:35:51;25.98;;;13.88;;
18249;SDS011;27980;52.126;5.572;2023-10-13T01:38:20;26.02;;;13.55;;
18249;SDS011;27980;52.126;5.572;2023-10-13T01:40:47;25.10;;;12.98;;
18249;SDS011;27980;52.126;5.572;2023-10-13T01:43:16;27.77;;;13.13;;
18249;SDS011;27980;52.126;5.572;2023-10-13T01:45:42;29.45;;;14.35;;
18249;SDS011;27980;52.126;5.572;2023-10-13T01:48:14;22.52;;;13.27;;
18249;SDS011;27980;52.126;5.572;2023-10-13T01:50:42;25.17;;;14.30;;
18249;SDS011;27980;52.126;5.572;2023-10-13T01:53:13;23.73;;;14.25;;
18249;SDS011;27980;52.126;5.572;2023-10-13T01:55:38;24.92;;;13.40;;
18249;SDS011;27980;52.126;5.572;2023-10-13T01:58:09;27.25;;;13.60;;
18249;SDS011;27980;52.126;5.572;2023-10-13T02:00:39;25.65;;;13.13;;
18249;SDS011;27980;52.126;5.572;2023-10-13T02:03:07;25.85;;;13.82;;
18249;SDS011;27980;52.126;5.572;2023-10-13T02:05:39;20.10;;;12.77;;
18249;SDS011;27980;52.126;5.572;2023-10-13T02:08:08;25.13;;;13.60;;
18249;SDS011;27980;52.126;5.572;2023-10-13T02:10:36;25.98;;;12.77;;
18249;SDS011;27980;52.126;5.572;2023-10-13T02:13:10;22.08;;;12.85;;
18249;SDS011;27980;52.126;5.572;2023-10-13T02:15:40;23.67;;;11.95;;
18249;SDS011;27980;52.126;5.572;2023-10-13T02:18:09;22.42;;;11.25;;
18249;SDS011;27980;52.126;5.572;2023-10-13T02:20:34;18.35;;;10.82;;
18249;SDS011;27980;52.126;5.572;2023-10-13T02:23:07;17.83;;;10.82;;
18249;SDS011;27980;52.126;5.572;2023-10-13T02:25:35;19.00;;;11.88;;
18249;SDS011;27980;52.126;5.572;2023-10-13T02:28:08;20.85;;;11.10;;
18249;SDS011;27980;52.126;5.572;2023-10-13T02:30:40;18.80;;;10.77;;
18249;SDS011;27980;52.126;5.572;2023-10-13T02:33:13;20.90;;;11.43;;
18249;SDS011;27980;52.126;5.572;2023-10-13T02:35:39;19.70;;;11.10;;
18249;SDS011;27980;52.126;5.572;2023-10-13T02:38:15;19.73;;;10.55;;
18249;SDS011;27980;52.126;5.572;2023-10-13T02:40:41;18.45;;;9.98;;
18249;SDS011;27980;52.126;5.572;2023-10-13T02:43:08;21.80;;;10.32;;
18249;SDS011;27980;52.126;5.572;2023-10-13T02:45:34;16.13;;;10.60;;
18249;SDS011;27980;52.126;5.572;2023-10-13T02:48:03;20.73;;;10.93;;
18249;SDS011;27980;52.126;5.572;2023-10-13T02:50:38;17.60;;;10.88;;
18249;SDS011;27980;52.126;5.572;2023-10-13T02:53:08;20.98;;;11.60;;
18249;SDS011;27980;52.126;5.572;2023-10-13T02:55:37;18.38;;;10.30;;
18249;SDS011;27980;52.126;5.572;2023-10-13T02:58:05;19.40;;;10.60;;
18249;SDS011;27980;52.126;5.572;2023-10-13T03:00:31;18.23;;;11.13;;
18249;SDS011;27980;52.126;5.572;2023-10-13T03:02:59;17.50;;;10.32;;
18249;SDS011;27980;52.126;5.572;2023-10-13T03:05:26;21.20;;;9.85;;
18249;SDS011;27980;52.126;5.572;2023-10-13T03:07:57;22.13;;;10.20;;
18249;SDS011;27980;52.126;5.572;2023-10-13T03:10:23;17.02;;;9.95;;
18249;SDS011;27980;52.126;5.572;2023-10-13T03:12:54;19.25;;;10.25;;
18249;SDS011;27980;52.126;5.572;2023-10-13T03:15:19;19.10;;;9.85;;
18249;SDS011;27980;52.126;5.572;2023-10-13T03:17:53;22.55;;;10.63;;
18249;SDS011;27980;52.126;5.572;2023-10-13T03:20:20;14.85;;;9.25;;
18249;SDS011;27980;52.126;5.572;2023-10-13T03:22:52;18.08;;;9.95;;
18249;SDS011;27980;52.126;5.572;2023-10-13T03:25:18;19.23;;;9.60;;
18249;SDS011;27980;52.126;5.572;2023-10-13T03:27:49;16.63;;;9.02;;
18249;SDS011;27980;52.126;5.572;2023-10-13T03:30:28;16.17;;;8.80;;
18249;SDS011;27980;52.126;5.572;2023-10-13T03:33:04;14.88;;;8.70;;
18249;SDS011;27980;52.126;5.572;2023-10-13T03:35:33;16.65;;;8.60;;
18249;SDS011;27980;52.126;5.572;2023-10-13T03:38:05;17.60;;;8.52;;
18249;SDS011;27980;52.126;5.572;2023-10-13T03:40:39;12.90;;;8.05;;
18249;SDS011;27980;52.126;5.572;2023-10-13T03:43:06;13.48;;;7.90;;
18249;SDS011;27980;52.126;5.572;2023-10-13T03:45:35;13.93;;;7.88;;
18249;SDS011;27980;52.126;5.572;2023-10-13T03:48:04;13.30;;;7.72;;
18249;SDS011;27980;52.126;5.572;2023-10-13T03:50:35;16.38;;;7.50;;
18249;SDS011;27980;52.126;5.572;2023-10-13T03:53:01;11.07;;;7.68;;
18249;SDS011;27980;52.126;5.572;2023-10-13T03:55:32;16.23;;;8.13;;
18249;SDS011;27980;52.126;5.572;2023-10-13T03:58:00;14.73;;;7.03;;
18249;SDS011;27980;52.126;5.572;2023-10-13T04:00:28;16.58;;;7.60;;
18249;SDS011;27980;52.126;5.572;2023-10-13T04:02:56;14.63;;;8.02;;
18249;SDS011;27980;52.126;5.572;2023-10-13T04:05:34;12.93;;;7.43;;
18249;SDS011;27980;52.126;5.572;2023-10-13T04:08:06;12.82;;;7.85;;
18249;SDS011;27980;52.126;5.572;2023-10-13T04:10:51;14.88;;;8.43;;
18249;SDS011;27980;52.126;5.572;2023-10-13T04:13:35;14.57;;;7.95;;
18249;SDS011;27980;52.126;5.572;2023-10-13T04:16:27;12.65;;;7.78;;
18249;SDS011;27980;52.126;5.572;2023-10-13T04:19:15;13.25;;;6.85;;
18249;SDS011;27980;52.126;5.572;2023-10-13T04:21:47;13.88;;;7.60;;
18249;SDS011;27980;52.126;5.572;2023-10-13T04:24:25;12.00;;;8.02;;
18249;SDS011;27980;52.126;5.572;2023-10-13T04:27:06;14.65;;;8.15;;
18249;SDS011;27980;52.126;5.572;2023-10-13T04:29:51;13.68;;;8.40;;
18249;SDS011;27980;52.126;5.572;2023-10-13T04:32:35;10.75;;;7.45;;
18249;SDS011;27980;52.126;5.572;2023-10-13T04:35:04;13.98;;;8.77;;
18249;SDS011;27980;52.126;5.572;2023-10-13T04:37:42;18.25;;;8.43;;
18249;SDS011;27980;52.126;5.572;2023-10-13T04:40:17;11.57;;;7.22;;
18249;SDS011;27980;52.126;5.572;2023-10-13T04:42:46;15.10;;;7.68;;
18249;SDS011;27980;52.126;5.572;2023-10-13T04:45:15;11.60;;;7.47;;
18249;SDS011;27980;52.126;5.572;2023-10-13T04:48:03;14.65;;;8.75;;
18249;SDS011;27980;52.126;5.572;2023-10-13T04:50:39;14.30;;;7.80;;
18249;SDS011;27980;52.126;5.572;2023-10-13T04:53:10;10.85;;;7.25;;
18249;SDS011;27980;52.126;5.572;2023-10-13T04:55:52;16.92;;;8.63;;
18249;SDS011;27980;52.126;5.572;2023-10-13T04:58:34;12.85;;;7.80;;
18249;SDS011;27980;52.126;5.572;2023-10-13T05:01:26;14.13;;;7.85;;
18249;SDS011;27980;52.126;5.572;2023-10-13T05:04:06;9.93;;;6.80;;
18249;SDS011;27980;52.126;5.572;2023-10-13T05:06:47;12.57;;;7.72;;
18249;SDS011;27980;52.126;5.572;2023-10-13T05:09:31;11.48;;;7.60;;
18249;SDS011;27980;52.126;5.572;2023-10-13T05:12:15;10.13;;;6.65;;
18249;SDS011;27980;52.126;5.572;2023-10-13T05:15:01;12.00;;;6.40;;
18249;SDS011;27980;52.126;5.572;2023-10-13T05:17:44;11.73;;;6.88;;
18249;SDS011;27980;52.126;5.572;2023-10-13T05:20:28;14.55;;;7.47;;
18249;SDS011;27980;52.126;5.572;2023-10-13T05:23:13;15.93;;;7.93;;
18249;SDS011;27980;52.126;5.572;2023-10-13T05:26:00;13.85;;;8.15;;
18249;SDS011;27980;52.126;5.572;2023-10-13T05:28:40;16.10;;;8.98;;
18249;SDS011;27980;52.126;5.572;2023-10-13T05:31:25;18.23;;;9.65;;
18249;SDS011;27980;52.126;5.572;2023-10-13T05:34:09;16.45;;;9.45;;
18249;SDS011;27980;52.126;5.572;2023-10-13T05:36:52;16.55;;;10.10;;
18249;SDS011;27980;52.126;5.572;2023-10-13T05:39:38;14.05;;;9.45;;
18249;SDS011;27980;52.126;5.572;2023-10-13T05:42:22;16.83;;;8.50;;
18249;SDS011;27980;52.126;5.572;2023-10-13T05:45:06;14.25;;;8.40;;
18249;SDS011;27980;52.126;5.572;2023-10-13T05:48:03;15.85;;;9.50;;
18249;SDS011;27980;52.126;5.572;2023-10-13T05:50:37;17.42;;;9.63;;
18249;SDS011;27980;52.126;5.572;2023-10-13T05:53:21;15.00;;;8.27;;
18249;SDS011;27980;52.126;5.572;2023-10-13T05:56:05;14.02;;;8.70;;
18249;SDS011;27980;52.126;5.572;2023-10-13T05:58:49;14.43;;;8.13;;
18249;SDS011;27980;52.126;5.572;2023-10-13T06:01:32;20.58;;;8.57;;
18249;SDS011;27980;52.126;5.572;2023-10-13T06:04:18;21.48;;;8.70;;
18249;SDS011;27980;52.126;5.572;2023-10-13T06:07:02;15.52;;;8.40;;
18249;SDS011;27980;52.126;5.572;2023-10-13T06:09:46;16.00;;;8.68;;
18249;SDS011;27980;52.126;5.572;2023-10-13T06:12:29;14.02;;;8.15;;
18249;SDS011;27980;52.126;5.572;2023-10-13T06:15:13;12.45;;;7.97;;
18249;SDS011;27980;52.126;5.572;2023-10-13T06:18:03;11.98;;;7.35;;
18249;SDS011;27980;52.126;5.572;2023-10-13T06:20:48;15.95;;;8.00;;
18249;SDS011;27980;52.126;5.572;2023-10-13T06:23:32;13.20;;;7.15;;
18249;SDS011;27980;52.126;5.572;2023-10-13T06:26:16;14.05;;;7.95;;
18249;SDS011;27980;52.126;5.572;2023-10-13T06:29:00;15.50;;;9.05;;
18249;SDS011;27980;52.126;5.572;2023-10-13T06:31:26;17.30;;;8.90;;
18249;SDS011;27980;52.126;5.572;2023-10-13T06:33:53;15.50;;;9.50;;
18249;SDS011;27980;52.126;5.572;2023-10-13T06:36:22;16.10;;;9.27;;
18249;SDS011;27980;52.126;5.572;2023-10-13T06:38:48;12.00;;;8.52;;
18249;SDS011;27980;52.126;5.572;2023-10-13T06:41:20;15.38;;;9.55;;
18249;SDS011;27980;52.126;5.572;2023-10-13T06:43:55;13.98;;;9.27;;
18249;SDS011;27980;52.126;5.572;2023-10-13T06:46:27;14.52;;;9.27;;
18249;SDS011;27980;52.126;5.572;2023-10-13T06:48:54;13.95;;;9.40;;
18249;SDS011;27980;52.126;5.572;2023-10-13T06:51:25;14.63;;;8.30;;
18249;SDS011;27980;52.126;5.572;2023-10-13T06:53:56;13.32;;;8.90;;
18249;SDS011;27980;52.126;5.572;2023-10-13T06:56:22;12.35;;;9.93;;
18249;SDS011;27980;52.126;5.572;2023-10-13T06:58:52;14.68;;;9.00;;
18249;SDS011;27980;52.126;5.572;2023-10-13T07:01:24;16.83;;;9.57;;
18249;SDS011;27980;52.126;5.572;2023-10-13T07:03:50;14.68;;;9.55;;
18249;SDS011;27980;52.126;5.572;2023-10-13T07:06:18;14.82;;;9.43;;
18249;SDS011;27980;52.126;5.572;2023-10-13T07:08:46;14.00;;;9.80;;
18249;SDS011;27980;52.126;5.572;2023-10-13T07:11:17;17.30;;;9.77;;
18249;SDS011;27980;52.126;5.572;2023-10-13T07:13:48;11.48;;;8.68;;
18249;SDS011;27980;52.126;5.572;2023-10-13T07:16:16;15.15;;;9.55;;
18249;SDS011;27980;52.126;5.572;2023-10-13T07:18:43;13.32;;;8.52;;
18249;SDS011;27980;52.126;5.572;2023-10-13T07:21:17;11.55;;;8.32;;
18249;SDS011;27980;52.126;5.572;2023-10-13T07:23:51;15.63;;;9.27;;
18249;SDS011;27980;52.126;5.572;2023-10-13T07:26:33;11.95;;;8.52;;
18249;SDS011;27980;52.126;5.572;2023-10-13T07:28:59;15.95;;;8.45;;
18249;SDS011;27980;52.126;5.572;2023-10-13T07:31:26;15.60;;;8.10;;
18249;SDS011;27980;52.126;5.572;2023-10-13T07:33:52;16.67;;;7.90;;
18249;SDS011;27980;52.126;5.572;2023-10-13T07:36:29;12.35;;;7.65;;
18249;SDS011;27980;52.126;5.572;2023-10-13T07:39:00;14.65;;;7.93;;
18249;SDS011;27980;52.126;5.572;2023-10-13T07:41:46;12.38;;;7.13;;
18249;SDS011;27980;52.126;5.572;2023-10-13T07:44:16;12.95;;;7.95;;
18249;SDS011;27980;52.126;5.572;2023-10-13T07:46:45;14.70;;;7.82;;
18249;SDS011;27980;52.126;5.572;2023-10-13T07:49:13;12.90;;;7.72;;
18249;SDS011;27980;52.126;5.572;2023-10-13T07:51:39;20.13;;;7.90;;
18249;SDS011;27980;52.126;5.572;2023-10-13T07:54:10;14.55;;;7.97;;
18249;SDS011;27980;52.126;5.572;2023-10-13T07:56:38;12.05;;;7.40;;
18249;SDS011;27980;52.126;5.572;2023-10-13T07:59:06;12.15;;;7.40;;
18249;SDS011;27980;52.126;5.572;2023-10-13T08:01:33;16.25;;;8.07;;
18249;SDS011;27980;52.126;5.572;2023-10-13T08:03:59;14.20;;;7.85;;
18249;SDS011;27980;52.126;5.572;2023-10-13T08:06:36;14.57;;;7.65;;
18249;SDS011;27980;52.126;5.572;2023-10-13T08:09:05;12.68;;;7.45;;
18249;SDS011;27980;52.126;5.572;2023-10-13T08:11:55;18.20;;;7.68;;
18249;SDS011;27980;52.126;5.572;2023-10-13T08:14:22;12.50;;;6.63;;
18249;SDS011;27980;52.126;5.572;2023-10-13T08:16:48;14.80;;;6.70;;
18249;SDS011;27980;52.126;5.572;2023-10-13T08:19:21;12.63;;;6.70;;
18249;SDS011;27980;52.126;5.572;2023-10-13T08:21:52;13.95;;;6.57;;
18249;SDS011;27980;52.126;5.572;2023-10-13T08:24:22;12.10;;;6.43;;
18249;SDS011;27980;52.126;5.572;2023-10-13T08:26:55;12.60;;;6.72;;
18249;SDS011;27980;52.126;5.572;2023-10-13T08:29:38;11.45;;;6.20;;
18249;SDS011;27980;52.126;5.572;2023-10-13T08:32:34;12.63;;;7.00;;
18249;SDS011;27980;52.126;5.572;2023-10-13T08:35:11;11.73;;;6.13;;
18249;SDS011;27980;52.126;5.572;2023-10-13T08:37:48;9.55;;;5.82;;
18249;SDS011;27980;52.126;5.572;2023-10-13T08:40:29;12.73;;;6.28;;
18249;SDS011;27980;52.126;5.572;2023-10-13T08:43:14;12.50;;;6.32;;
18249;SDS011;27980;52.126;5.572;2023-10-13T08:45:42;9.85;;;5.35;;
18249;SDS011;27980;52.126;5.572;2023-10-13T08:48:23;9.73;;;5.65;;
18249;SDS011;27980;52.126;5.572;2023-10-13T08:50:56;9.60;;;5.03;;
18249;SDS011;27980;52.126;5.572;2023-10-13T08:53:29;8.85;;;4.80;;
18249;SDS011;27980;52.126;5.572;2023-10-13T08:55:58;9.68;;;4.80;;
18249;SDS011;27980;52.126;5.572;2023-10-13T08:58:32;10.63;;;4.93;;
18249;SDS011;27980;52.126;5.572;2023-10-13T09:01:17;8.65;;;4.38;;
18249;SDS011;27980;52.126;5.572;2023-10-13T09:03:58;14.50;;;4.63;;
18249;SDS011;27980;52.126;5.572;2023-10-13T09:06:46;6.88;;;4.68;;
18249;SDS011;27980;52.126;5.572;2023-10-13T09:09:13;12.52;;;4.15;;
18249;SDS011;27980;52.126;5.572;2023-10-13T09:11:59;7.65;;;4.10;;
18249;SDS011;27980;52.126;5.572;2023-10-13T09:14:35;8.57;;;4.00;;
18249;SDS011;27980;52.126;5.572;2023-10-13T09:17:04;12.32;;;4.05;;
18249;SDS011;27980;52.126;5.572;2023-10-13T09:19:46;11.02;;;3.60;;
18249;SDS011;27980;52.126;5.572;2023-10-13T09:22:21;9.15;;;4.22;;
18249;SDS011;27980;52.126;5.572;2023-10-13T09:24:55;9.20;;;4.32;;
18249;SDS011;27980;52.126;5.572;2023-10-13T09:27:24;6.97;;;4.03;;
18249;SDS011;27980;52.126;5.572;2023-10-13T09:29:56;5.40;;;3.90;;
18249;SDS011;27980;52.126;5.572;2023-10-13T09:32:26;7.22;;;4.15;;
18249;SDS011;27980;52.126;5.572;2023-10-13T09:34:52;7.80;;;4.13;;
18249;SDS011;27980;52.126;5.572;2023-10-13T09:37:19;11.15;;;4.60;;
18249;SDS011;27980;52.126;5.572;2023-10-13T09:39:46;7.85;;;4.05;;
18249;SDS011;27980;52.126;5.572;2023-10-13T09:42:16;7.18;;;4.30;;
18249;SDS011;27980;52.126;5.572;2023-10-13T09:44:43;9.77;;;3.83;;
18249;SDS011;27980;52.126;5.572;2023-10-13T09:47:16;9.35;;;4.15;;
18249;SDS011;27980;52.126;5.572;2023-10-13T09:49:47;11.20;;;4.70;;
18249;SDS011;27980;52.126;5.572;2023-10-13T09:52:16;11.27;;;4.35;;
18249;SDS011;27980;52.126;5.572;2023-10-13T09:57:29;7.65;;;3.97;;
18249;SDS011;27980;52.126;5.572;2023-10-13T10:00:00;8.35;;;4.00;;
18249;SDS011;27980;52.126;5.572;2023-10-13T10:02:33;8.05;;;3.85;;
18249;SDS011;27980;52.126;5.572;2023-10-13T10:04:59;9.27;;;4.43;;
18249;SDS011;27980;52.126;5.572;2023-10-13T10:07:38;9.38;;;3.88;;
18249;SDS011;27980;52.126;5.572;2023-10-13T10:10:05;10.32;;;4.05;;
18249;SDS011;27980;52.126;5.572;2023-10-13T10:12:36;7.57;;;4.05;;
18249;SDS011;27980;52.126;5.572;2023-10-13T10:15:08;9.45;;;4.35;;
18249;SDS011;27980;52.126;5.572;2023-10-13T10:17:41;8.40;;;3.45;;
18249;SDS011;27980;52.126;5.572;2023-10-13T10:20:09;7.63;;;4.30;;
18249;SDS011;27980;52.126;5.572;2023-10-13T10:22:57;7.05;;;3.47;;
18249;SDS011;27980;52.126;5.572;2023-10-13T10:25:28;6.97;;;4.13;;
18249;SDS011;27980;52.126;5.572;2023-10-13T10:28:00;9.32;;;4.18;;
18249;SDS011;27980;52.126;5.572;2023-10-13T10:30:30;9.38;;;4.68;;
18249;SDS011;27980;52.126;5.572;2023-10-13T10:33:01;9.93;;;4.32;;
18249;SDS011;27980;52.126;5.572;2023-10-13T10:35:33;8.63;;;4.20;;
18249;SDS011;27980;52.126;5.572;2023-10-13T10:38:06;9.20;;;4.15;;
18249;SDS011;27980;52.126;5.572;2023-10-13T10:40:47;12.77;;;4.20;;
18249;SDS011;27980;52.126;5.572;2023-10-13T10:43:17;7.25;;;3.70;;
18249;SDS011;27980;52.126;5.572;2023-10-13T10:45:46;7.05;;;3.92;;
18249;SDS011;27980;52.126;5.572;2023-10-13T10:48:15;5.10;;;4.10;;
18249;SDS011;27980;52.126;5.572;2023-10-13T10:50:57;9.77;;;4.15;;
18249;SDS011;27980;52.126;5.572;2023-10-13T10:53:24;7.03;;;3.97;;
18249;SDS011;27980;52.126;5.572;2023-10-13T10:56:08;7.28;;;4.15;;
18249;SDS011;27980;52.126;5.572;2023-10-13T10:58:45;8.00;;;4.45;;
18249;SDS011;27980;52.126;5.572;2023-10-13T11:01:14;11.27;;;3.90;;
18249;SDS011;27980;52.126;5.572;2023-10-13T11:03:58;8.57;;;4.32;;
18249;SDS011;27980;52.126;5.572;2023-10-13T11:06:32;10.38;;;4.03;;
18249;SDS011;27980;52.126;5.572;2023-10-13T11:09:03;8.23;;;3.40;;
18249;SDS011;27980;52.126;5.572;2023-10-13T11:11:33;8.45;;;4.00;;
18249;SDS011;27980;52.126;5.572;2023-10-13T11:14:00;8.48;;;4.32;;
18249;SDS011;27980;52.126;5.572;2023-10-13T11:16:44;12.52;;;3.90;;
18249;SDS011;27980;52.126;5.572;2023-10-13T11:19:17;7.97;;;3.50;;
18249;SDS011;27980;52.126;5.572;2023-10-13T11:21:46;10.50;;;3.70;;
18249;SDS011;27980;52.126;5.572;2023-10-13T11:24:12;8.52;;;3.80;;
18249;SDS011;27980;52.126;5.572;2023-10-13T11:26:39;12.15;;;4.03;;
18249;SDS011;27980;52.126;5.572;2023-10-13T11:29:14;11.02;;;3.97;;
18249;SDS011;27980;52.126;5.572;2023-10-13T11:31:44;7.65;;;3.92;;
18249;SDS011;27980;52.126;5.572;2023-10-13T11:34:11;9.32;;;4.15;;
18249;SDS011;27980;52.126;5.572;2023-10-13T11:36:42;8.70;;;3.90;;
18249;SDS011;27980;52.126;5.572;2023-10-13T11:39:09;7.72;;;4.18;;
18249;SDS011;27980;52.126;5.572;2023-10-13T11:41:42;7.85;;;4.28;;
18249;SDS011;27980;52.126;5.572;2023-10-13T11:44:15;8.63;;;3.60;;
18249;SDS011;27980;52.126;5.572;2023-10-13T11:46:56;7.05;;;4.00;;
18249;SDS011;27980;52.126;5.572;2023-10-13T11:49:32;8.43;;;3.90;;
18249;SDS011;27980;52.126;5.572;2023-10-13T11:52:03;9.88;;;4.22;;
18249;SDS011;27980;52.126;5.572;2023-10-13T11:54:42;6.60;;;3.53;;
18249;SDS011;27980;52.126;5.572;2023-10-13T11:57:12;8.63;;;4.10;;
18249;SDS011;27980;52.126;5.572;2023-10-13T11:59:42;7.65;;;3.72;;
18249;SDS011;27980;52.126;5.572;2023-10-13T12:02:18;11.52;;;4.35;;
18249;SDS011;27980;52.126;5.572;2023-10-13T12:05:05;8.68;;;3.88;;
18249;SDS011;27980;52.126;5.572;2023-10-13T12:07:39;11.80;;;5.07;;
18249;SDS011;27980;52.126;5.572;2023-10-13T12:10:13;7.88;;;4.80;;
18249;SDS011;27980;52.126;5.572;2023-10-13T12:12:58;8.98;;;4.10;;
18249;SDS011;27980;52.126;5.572;2023-10-13T12:15:31;11.10;;;4.50;;
18249;SDS011;27980;52.126;5.572;2023-10-13T12:18:03;16.58;;;4.43;;
18249;SDS011;27980;52.126;5.572;2023-10-13T12:20:30;9.48;;;4.25;;
18249;SDS011;27980;52.126;5.572;2023-10-13T12:23:02;7.20;;;4.10;;
18249;SDS011;27980;52.126;5.572;2023-10-13T12:25:40;11.45;;;4.35;;
18249;SDS011;27980;52.126;5.572;2023-10-13T12:28:25;13.80;;;4.35;;
18249;SDS011;27980;52.126;5.572;2023-10-13T12:30:53;12.23;;;4.22;;
18249;SDS011;27980;52.126;5.572;2023-10-13T12:33:22;11.25;;;3.58;;
18249;SDS011;27980;52.126;5.572;2023-10-13T12:35:56;7.68;;;4.55;;
18249;SDS011;27980;52.126;5.572;2023-10-13T12:38:41;8.48;;;3.90;;
18249;SDS011;27980;52.126;5.572;2023-10-13T12:41:25;10.45;;;4.35;;
18249;SDS011;27980;52.126;5.572;2023-10-13T12:44:09;12.05;;;4.53;;
18249;SDS011;27980;52.126;5.572;2023-10-13T12:46:53;10.43;;;4.03;;
18249;SDS011;27980;52.126;5.572;2023-10-13T12:49:37;10.60;;;4.40;;
18249;SDS011;27980;52.126;5.572;2023-10-13T12:52:22;9.02;;;3.80;;
18249;SDS011;27980;52.126;5.572;2023-10-13T12:54:53;8.38;;;4.07;;
18249;SDS011;27980;52.126;5.572;2023-10-13T12:57:31;8.63;;;4.20;;
18249;SDS011;27980;52.126;5.572;2023-10-13T12:59:58;11.68;;;4.13;;
18249;SDS011;27980;52.126;5.572;2023-10-13T13:02:25;14.20;;;4.57;;
18249;SDS011;27980;52.126;5.572;2023-10-13T13:04:52;12.55;;;3.80;;
18249;SDS011;27980;52.126;5.572;2023-10-13T13:07:22;8.30;;;4.05;;
18249;SDS011;27980;52.126;5.572;2023-10-13T13:09:55;9.82;;;4.63;;
18249;SDS011;27980;52.126;5.572;2023-10-13T13:12:25;10.63;;;4.10;;
18249;SDS011;27980;52.126;5.572;2023-10-13T13:14:53;14.05;;;3.83;;
18249;SDS011;27980;52.126;5.572;2023-10-13T13:17:20;11.32;;;4.57;;
18249;SDS011;27980;52.126;5.572;2023-10-13T13:19:46;8.73;;;4.45;;
18249;SDS011;27980;52.126;5.572;2023-10-13T13:22:14;8.32;;;4.30;;
18249;SDS011;27980;52.126;5.572;2023-10-13T13:24:43;9.52;;;4.50;;
18249;SDS011;27980;52.126;5.572;2023-10-13T13:27:11;11.57;;;4.43;;
18249;SDS011;27980;52.126;5.572;2023-10-13T13:29:39;11.20;;;4.28;;
18249;SDS011;27980;52.126;5.572;2023-10-13T13:32:05;14.98;;;5.22;;
18249;SDS011;27980;52.126;5.572;2023-10-13T13:34:42;12.75;;;5.50;;
18249;SDS011;27980;52.126;5.572;2023-10-13T13:37:08;9.43;;;4.32;;
18249;SDS011;27980;52.126;5.572;2023-10-13T13:39:37;11.85;;;5.65;;
18249;SDS011;27980;52.126;5.572;2023-10-13T13:42:08;12.25;;;5.18;;
18249;SDS011;27980;52.126;5.572;2023-10-13T13:44:36;11.63;;;4.93;;
18249;SDS011;27980;52.126;5.572;2023-10-13T13:47:02;9.40;;;4.60;;
18249;SDS011;27980;52.126;5.572;2023-10-13T13:49:37;8.25;;;4.85;;
18249;SDS011;27980;52.126;5.572;2023-10-13T13:52:11;14.30;;;5.22;;
18249;SDS011;27980;52.126;5.572;2023-10-13T13:54:42;6.28;;;4.53;;
18249;SDS011;27980;52.126;5.572;2023-10-13T13:57:09;10.77;;;4.85;;
18249;SDS011;27980;52.126;5.572;2023-10-13T13:59:39;15.55;;;5.50;;
18249;SDS011;27980;52.126;5.572;2023-10-13T14:02:10;11.02;;;4.82;;
18249;SDS011;27980;52.126;5.572;2023-10-13T14:04:45;7.25;;;5.07;;
18249;SDS011;27980;52.126;5.572;2023-10-13T14:07:12;11.70;;;5.18;;
18249;SDS011;27980;52.126;5.572;2023-10-13T14:09:40;9.70;;;5.45;;
18249;SDS011;27980;52.126;5.572;2023-10-13T14:12:09;12.32;;;5.35;;
18249;SDS011;27980;52.126;5.572;2023-10-13T14:15:02;9.43;;;4.85;;
18249;SDS011;27980;52.126;5.572;2023-10-13T14:17:29;13.48;;;5.45;;
18249;SDS011;27980;52.126;5.572;2023-10-13T14:20:00;9.25;;;4.80;;
18249;SDS011;27980;52.126;5.572;2023-10-13T14:22:34;7.82;;;4.90;;
18249;SDS011;27980;52.126;5.572;2023-10-13T14:25:02;12.00;;;5.45;;
18249;SDS011;27980;52.126;5.572;2023-10-13T14:27:34;14.57;;;5.78;;
18249;SDS011;27980;52.126;5.572;2023-10-13T14:30:00;10.35;;;5.30;;
18249;SDS011;27980;52.126;5.572;2023-10-13T14:32:28;11.75;;;5.13;;
18249;SDS011;27980;52.126;5.572;2023-10-13T14:34:54;10.13;;;5.13;;
18249;SDS011;27980;52.126;5.572;2023-10-13T14:37:21;7.72;;;4.53;;
18249;SDS011;27980;52.126;5.572;2023-10-13T14:39:53;12.18;;;5.75;;
18249;SDS011;27980;52.126;5.572;2023-10-13T14:42:22;13.85;;;5.15;;
18249;SDS011;27980;52.126;5.572;2023-10-13T14:44:48;11.80;;;4.90;;
18249;SDS011;27980;52.126;5.572;2023-10-13T14:47:20;13.25;;;5.32;;
18249;SDS011;27980;52.126;5.572;2023-10-13T14:49:51;8.50;;;4.65;;
18249;SDS011;27980;52.126;5.572;2023-10-13T14:52:19;12.80;;;4.88;;
18249;SDS011;27980;52.126;5.572;2023-10-13T14:54:46;13.60;;;5.00;;
18249;SDS011;27980;52.126;5.572;2023-10-13T14:57:13;12.85;;;4.43;;
18249;SDS011;27980;52.126;5.572;2023-10-13T14:59:40;11.93;;;4.53;;
18249;SDS011;27980;52.126;5.572;2023-10-13T15:02:06;8.52;;;4.60;;
18249;SDS011;27980;52.126;5.572;2023-10-13T15:04:33;9.57;;;4.55;;
18249;SDS011;27980;52.126;5.572;2023-10-13T15:07:01;11.80;;;4.55;;
18249;SDS011;27980;52.126;5.572;2023-10-13T15:09:28;11.13;;;5.85;;
18249;SDS011;27980;52.126;5.572;2023-10-13T15:11:54;10.85;;;5.35;;